sensor_id;sensor_type;location;lat;lon;timestamp;temperature;humidity
6114;DHT22;3087;48.392;10.836;2023-04-03T00:01:00;5.60;99.90
6114;DHT22;3087;48.392;10.836;2023-04-03T00:03:26;5.60;99.90
6114;DHT22;3087;48.392;10.836;2023-04-03T00:05:52;5.50;99.90
6114;DHT22;3087;48.392;10.836;2023-04-03T00:08:17;5.50;99.90
6114;DHT22;3087;48.392;10.836;2023-04-03T00:10:43;5.70;99.90
6114;DHT22;3087;48.392;10.836;2023-04-03T00:13:09;6.40;99.90
6114;DHT22;3087;48.392;10.836;2023-04-03T00:15:36;5.50;99.90
6114;DHT22;3087;48.392;10.836;2023-04-03T00:18:03;6.10;99.90
6114;DHT22;3087;48.392;10.836;2023-04-03T00:20:28;5.60;99.90
6114;DHT22;3087;48.392;10.836;2023-04-03T00:22:54;5.60;99.90
6114;DHT22;3087;48.392;10.836;2023-04-03T00:25:20;5.50;99.90
6114;DHT22;3087;48.392;10.836;2023-04-03T00:27:46;5.50;99.90
6114;DHT22;3087;48.392;10.836;2023-04-03T00:30:14;5.40;99.90
6114;DHT22;3087;48.392;10.836;2023-04-03T00:32:40;5.40;99.90
6114;DHT22;3087;48.392;10.836;2023-04-03T00:35:06;5.70;99.90
6114;DHT22;3087;48.392;10.836;2023-04-03T00:37:32;5.50;99.90
6114;DHT22;3087;48.392;10.836;2023-04-03T00:39:58;5.50;99.90
6114;DHT22;3087;48.392;10.836;2023-04-03T00:42:24;5.40;99.90
6114;DHT22;3087;48.392;10.836;2023-04-03T00:47:18;5.40;99.90
6114;DHT22;3087;48.392;10.836;2023-04-03T00:49:44;5.40;99.90
6114;DHT22;3087;48.392;10.836;2023-04-03T00:52:14;5.40;99.90
6114;DHT22;3087;48.392;10.836;2023-04-03T00:54:41;5.50;99.90
6114;DHT22;3087;48.392;10.836;2023-04-03T00:57:08;6.10;99.90
6114;DHT22;3087;48.392;10.836;2023-04-03T00:59:36;5.60;99.90
6114;DHT22;3087;48.392;10.836;2023-04-03T01:02:03;5.60;99.90
6114;DHT22;3087;48.392;10.836;2023-04-03T01:04:31;5.50;99.90
6114;DHT22;3087;48.392;10.836;2023-04-03T01:07:00;5.40;99.90
6114;DHT22;3087;48.392;10.836;2023-04-03T01:09:28;6.70;99.90
6114;DHT22;3087;48.392;10.836;2023-04-03T01:11:54;5.50;99.90
6114;DHT22;3087;48.392;10.836;2023-04-03T01:14:20;5.40;99.90
6114;DHT22;3087;48.392;10.836;2023-04-03T01:16:55;7.00;99.90
6114;DHT22;3087;48.392;10.836;2023-04-03T01:19:22;5.40;99.90
6114;DHT22;3087;48.392;10.836;2023-04-03T01:24:52;5.50;99.90
6114;DHT22;3087;48.392;10.836;2023-04-03T01:27:18;5.60;99.90
6114;DHT22;3087;48.392;10.836;2023-04-03T01:29:44;5.10;99.90
6114;DHT22;3087;48.392;10.836;2023-04-03T01:32:10;5.50;99.90
6114;DHT22;3087;48.392;10.836;2023-04-03T01:34:36;5.60;99.90
6114;DHT22;3087;48.392;10.836;2023-04-03T01:37:02;5.60;99.90
6114;DHT22;3087;48.392;10.836;2023-04-03T01:39:27;5.60;99.90
6114;DHT22;3087;48.392;10.836;2023-04-03T01:41:53;5.50;99.90
6114;DHT22;3087;48.392;10.836;2023-04-03T01:44:18;5.40;99.90
6114;DHT22;3087;48.392;10.836;2023-04-03T01:46:44;6.50;99.90
6114;DHT22;3087;48.392;10.836;2023-04-03T01:49:10;5.40;99.90
6114;DHT22;3087;48.392;10.836;2023-04-03T01:51:35;5.50;99.90
6114;DHT22;3087;48.392;10.836;2023-04-03T01:54:01;5.50;99.90
6114;DHT22;3087;48.392;10.836;2023-04-03T01:56:27;5.50;99.90
6114;DHT22;3087;48.392;10.836;2023-04-03T01:58:52;5.40;99.90
6114;DHT22;3087;48.392;10.836;2023-04-03T02:01:18;5.40;99.90
6114;DHT22;3087;48.392;10.836;2023-04-03T02:03:43;5.40;99.90
6114;DHT22;3087;48.392;10.836;2023-04-03T02:06:09;5.40;99.90
6114;DHT22;3087;48.392;10.836;2023-04-03T02:08:35;5.40;99.90
6114;DHT22;3087;48.392;10.836;2023-04-03T02:11:01;5.40;99.90
6114;DHT22;3087;48.392;10.836;2023-04-03T02:13:26;5.40;99.90
6114;DHT22;3087;48.392;10.836;2023-04-03T02:15:52;5.40;99.90
6114;DHT22;3087;48.392;10.836;2023-04-03T02:18:17;5.30;99.90
6114;DHT22;3087;48.392;10.836;2023-04-03T02:20:43;5.40;99.90
6114;DHT22;3087;48.392;10.836;2023-04-03T02:23:09;5.50;99.90
6114;DHT22;3087;48.392;10.836;2023-04-03T02:25:35;5.40;99.90
6114;DHT22;3087;48.392;10.836;2023-04-03T02:28:00;5.60;99.90
6114;DHT22;3087;48.392;10.836;2023-04-03T02:30:26;5.60;99.90
6114;DHT22;3087;48.392;10.836;2023-04-03T02:32:52;5.50;99.90
6114;DHT22;3087;48.392;10.836;2023-04-03T02:35:18;5.40;99.90
6114;DHT22;3087;48.392;10.836;2023-04-03T02:37:44;5.30;99.90
6114;DHT22;3087;48.392;10.836;2023-04-03T02:40:10;5.30;99.90
6114;DHT22;3087;48.392;10.836;2023-04-03T02:42:37;5.40;99.90
6114;DHT22;3087;48.392;10.836;2023-04-03T02:45:02;5.30;99.90
6114;DHT22;3087;48.392;10.836;2023-04-03T02:47:28;5.30;99.90
6114;DHT22;3087;48.392;10.836;2023-04-03T02:49:54;5.30;99.90
6114;DHT22;3087;48.392;10.836;2023-04-03T02:52:20;5.30;99.90
6114;DHT22;3087;48.392;10.836;2023-04-03T02:54:45;5.40;99.90
6114;DHT22;3087;48.392;10.836;2023-04-03T02:57:11;5.30;99.90
6114;DHT22;3087;48.392;10.836;2023-04-03T02:59:37;5.30;99.90
6114;DHT22;3087;48.392;10.836;2023-04-03T03:02:08;5.20;99.90
6114;DHT22;3087;48.392;10.836;2023-04-03T03:04:34;5.20;99.90
6114;DHT22;3087;48.392;10.836;2023-04-03T03:07:00;5.20;99.90
6114;DHT22;3087;48.392;10.836;2023-04-03T03:09:26;5.30;99.90
6114;DHT22;3087;48.392;10.836;2023-04-03T03:11:51;5.30;99.90
6114;DHT22;3087;48.392;10.836;2023-04-03T03:14:17;5.30;99.90
6114;DHT22;3087;48.392;10.836;2023-04-03T03:16:42;5.20;99.90
6114;DHT22;3087;48.392;10.836;2023-04-03T03:19:08;5.30;99.90
6114;DHT22;3087;48.392;10.836;2023-04-03T03:21:34;5.30;99.90
6114;DHT22;3087;48.392;10.836;2023-04-03T03:23:59;5.30;99.90
6114;DHT22;3087;48.392;10.836;2023-04-03T03:26:25;5.30;99.90
6114;DHT22;3087;48.392;10.836;2023-04-03T03:28:50;5.30;99.90
6114;DHT22;3087;48.392;10.836;2023-04-03T03:31:16;5.30;99.90
6114;DHT22;3087;48.392;10.836;2023-04-03T03:33:42;6.40;99.90
6114;DHT22;3087;48.392;10.836;2023-04-03T03:36:07;5.20;99.90
6114;DHT22;3087;48.392;10.836;2023-04-03T03:38:33;5.00;99.90
6114;DHT22;3087;48.392;10.836;2023-04-03T03:40:58;5.00;99.90
6114;DHT22;3087;48.392;10.836;2023-04-03T03:43:24;5.10;99.90
6114;DHT22;3087;48.392;10.836;2023-04-03T03:45:51;5.10;99.90
6114;DHT22;3087;48.392;10.836;2023-04-03T03:48:18;6.60;99.90
6114;DHT22;3087;48.392;10.836;2023-04-03T03:50:44;5.00;99.90
6114;DHT22;3087;48.392;10.836;2023-04-03T03:53:09;5.00;99.90
6114;DHT22;3087;48.392;10.836;2023-04-03T03:55:35;5.00;99.90
6114;DHT22;3087;48.392;10.836;2023-04-03T03:58:00;5.00;99.90
6114;DHT22;3087;48.392;10.836;2023-04-03T04:00:27;5.10;99.90
6114;DHT22;3087;48.392;10.836;2023-04-03T04:02:53;5.10;99.90
6114;DHT22;3087;48.392;10.836;2023-04-03T04:05:18;6.00;99.90
6114;DHT22;3087;48.392;10.836;2023-04-03T04:07:44;5.10;99.90
6114;DHT22;3087;48.392;10.836;2023-04-03T04:10:09;5.10;99.90
6114;DHT22;3087;48.392;10.836;2023-04-03T04:12:35;5.10;99.90
6114;DHT22;3087;48.392;10.836;2023-04-03T04:15:01;5.20;99.90
6114;DHT22;3087;48.392;10.836;2023-04-03T04:17:27;5.10;99.90
6114;DHT22;3087;48.392;10.836;2023-04-03T04:19:53;5.10;99.90
6114;DHT22;3087;48.392;10.836;2023-04-03T04:22:18;5.10;99.90
6114;DHT22;3087;48.392;10.836;2023-04-03T04:24:44;7.30;99.90
6114;DHT22;3087;48.392;10.836;2023-04-03T04:27:10;5.10;99.90
6114;DHT22;3087;48.392;10.836;2023-04-03T04:29:35;5.10;99.90
6114;DHT22;3087;48.392;10.836;2023-04-03T04:32:03;5.10;99.90
6114;DHT22;3087;48.392;10.836;2023-04-03T04:34:29;5.00;99.90
6114;DHT22;3087;48.392;10.836;2023-04-03T04:36:55;5.00;99.90
6114;DHT22;3087;48.392;10.836;2023-04-03T04:39:20;5.10;99.90
6114;DHT22;3087;48.392;10.836;2023-04-03T04:41:46;5.10;99.90
6114;DHT22;3087;48.392;10.836;2023-04-03T04:44:12;5.10;99.90
6114;DHT22;3087;48.392;10.836;2023-04-03T04:46:37;5.00;99.90
6114;DHT22;3087;48.392;10.836;2023-04-03T04:49:03;4.90;99.90
6114;DHT22;3087;48.392;10.836;2023-04-03T04:51:28;6.10;99.90
6114;DHT22;3087;48.392;10.836;2023-04-03T04:53:54;4.90;99.90
6114;DHT22;3087;48.392;10.836;2023-04-03T04:56:19;4.90;99.90
6114;DHT22;3087;48.392;10.836;2023-04-03T04:58:46;4.90;99.90
6114;DHT22;3087;48.392;10.836;2023-04-03T05:01:11;4.80;99.90
6114;DHT22;3087;48.392;10.836;2023-04-03T05:03:37;4.80;99.90
6114;DHT22;3087;48.392;10.836;2023-04-03T05:06:03;4.80;99.90
6114;DHT22;3087;48.392;10.836;2023-04-03T05:08:29;4.80;99.90
6114;DHT22;3087;48.392;10.836;2023-04-03T05:10:54;5.10;99.90
6114;DHT22;3087;48.392;10.836;2023-04-03T05:13:20;4.90;99.90
6114;DHT22;3087;48.392;10.836;2023-04-03T05:15:47;4.90;99.90
6114;DHT22;3087;48.392;10.836;2023-04-03T05:18:13;5.30;99.90
6114;DHT22;3087;48.392;10.836;2023-04-03T05:20:38;4.90;99.90
6114;DHT22;3087;48.392;10.836;2023-04-03T05:23:04;4.90;99.90
6114;DHT22;3087;48.392;10.836;2023-04-03T05:25:30;4.90;99.90
6114;DHT22;3087;48.392;10.836;2023-04-03T05:27:55;4.90;99.90
6114;DHT22;3087;48.392;10.836;2023-04-03T05:30:21;4.90;99.90
6114;DHT22;3087;48.392;10.836;2023-04-03T05:32:47;4.90;99.90
6114;DHT22;3087;48.392;10.836;2023-04-03T05:35:12;5.50;99.90
6114;DHT22;3087;48.392;10.836;2023-04-03T05:37:38;4.90;99.90
6114;DHT22;3087;48.392;10.836;2023-04-03T05:40:05;4.90;99.90
6114;DHT22;3087;48.392;10.836;2023-04-03T05:42:31;5.00;99.90
6114;DHT22;3087;48.392;10.836;2023-04-03T05:44:56;5.00;99.90
6114;DHT22;3087;48.392;10.836;2023-04-03T05:47:22;5.00;99.90
6114;DHT22;3087;48.392;10.836;2023-04-03T05:49:48;5.00;99.90
6114;DHT22;3087;48.392;10.836;2023-04-03T05:52:28;5.10;99.90
6114;DHT22;3087;48.392;10.836;2023-04-03T05:54:54;5.00;99.90
6114;DHT22;3087;48.392;10.836;2023-04-03T05:57:20;5.00;99.90
6114;DHT22;3087;48.392;10.836;2023-04-03T05:59:46;5.00;99.90
6114;DHT22;3087;48.392;10.836;2023-04-03T06:02:14;4.90;99.90
6114;DHT22;3087;48.392;10.836;2023-04-03T06:04:40;4.90;99.90
6114;DHT22;3087;48.392;10.836;2023-04-03T06:07:08;4.90;99.90
6114;DHT22;3087;48.392;10.836;2023-04-03T06:09:35;4.80;99.90
6114;DHT22;3087;48.392;10.836;2023-04-03T06:12:01;4.80;99.90
6114;DHT22;3087;48.392;10.836;2023-04-03T06:14:27;4.90;99.90
6114;DHT22;3087;48.392;10.836;2023-04-03T06:16:53;5.00;99.90
6114;DHT22;3087;48.392;10.836;2023-04-03T06:19:19;5.00;99.90
6114;DHT22;3087;48.392;10.836;2023-04-03T06:21:46;5.00;99.90
6114;DHT22;3087;48.392;10.836;2023-04-03T06:24:15;4.90;99.90
6114;DHT22;3087;48.392;10.836;2023-04-03T06:26:41;5.00;99.90
6114;DHT22;3087;48.392;10.836;2023-04-03T06:29:07;5.00;99.90
6114;DHT22;3087;48.392;10.836;2023-04-03T06:31:32;4.10;99.90
6114;DHT22;3087;48.392;10.836;2023-04-03T06:33:58;5.60;99.90
6114;DHT22;3087;48.392;10.836;2023-04-03T06:36:24;5.00;99.90
6114;DHT22;3087;48.392;10.836;2023-04-03T06:38:49;5.00;99.90
6114;DHT22;3087;48.392;10.836;2023-04-03T06:41:16;5.10;99.90
6114;DHT22;3087;48.392;10.836;2023-04-03T06:43:43;5.10;99.90
6114;DHT22;3087;48.392;10.836;2023-04-03T06:46:21;5.10;99.90
6114;DHT22;3087;48.392;10.836;2023-04-03T06:48:47;5.00;99.90
6114;DHT22;3087;48.392;10.836;2023-04-03T06:51:23;5.00;99.90
6114;DHT22;3087;48.392;10.836;2023-04-03T06:53:50;5.00;99.90
6114;DHT22;3087;48.392;10.836;2023-04-03T06:56:16;5.10;99.90
6114;DHT22;3087;48.392;10.836;2023-04-03T06:58:42;5.10;99.90
6114;DHT22;3087;48.392;10.836;2023-04-03T07:01:09;5.20;99.90
6114;DHT22;3087;48.392;10.836;2023-04-03T07:03:36;5.20;99.90
6114;DHT22;3087;48.392;10.836;2023-04-03T07:06:03;5.20;99.90
6114;DHT22;3087;48.392;10.836;2023-04-03T07:08:29;5.30;99.90
6114;DHT22;3087;48.392;10.836;2023-04-03T07:10:55;5.50;99.90
6114;DHT22;3087;48.392;10.836;2023-04-03T07:13:20;5.60;99.90
6114;DHT22;3087;48.392;10.836;2023-04-03T07:15:46;5.60;99.90
6114;DHT22;3087;48.392;10.836;2023-04-03T07:18:12;6.60;99.90
6114;DHT22;3087;48.392;10.836;2023-04-03T07:20:38;5.80;99.90
6114;DHT22;3087;48.392;10.836;2023-04-03T07:23:04;5.80;99.90
6114;DHT22;3087;48.392;10.836;2023-04-03T07:25:30;6.00;99.90
6114;DHT22;3087;48.392;10.836;2023-04-03T07:27:57;6.00;99.90
6114;DHT22;3087;48.392;10.836;2023-04-03T07:30:23;6.00;99.90
6114;DHT22;3087;48.392;10.836;2023-04-03T07:32:49;7.80;99.90
6114;DHT22;3087;48.392;10.836;2023-04-03T07:35:14;6.10;99.90
6114;DHT22;3087;48.392;10.836;2023-04-03T07:37:41;6.20;99.90
6114;DHT22;3087;48.392;10.836;2023-04-03T07:40:07;6.70;99.90
6114;DHT22;3087;48.392;10.836;2023-04-03T07:42:34;6.30;99.90
6114;DHT22;3087;48.392;10.836;2023-04-03T07:45:01;6.50;99.90
6114;DHT22;3087;48.392;10.836;2023-04-03T07:47:27;6.10;99.90
6114;DHT22;3087;48.392;10.836;2023-04-03T07:49:52;6.10;99.90
6114;DHT22;3087;48.392;10.836;2023-04-03T07:52:18;6.30;99.90
6114;DHT22;3087;48.392;10.836;2023-04-03T07:54:44;6.80;99.90
6114;DHT22;3087;48.392;10.836;2023-04-03T07:57:09;6.30;99.90
6114;DHT22;3087;48.392;10.836;2023-04-03T07:59:35;6.40;99.90
6114;DHT22;3087;48.392;10.836;2023-04-03T08:02:00;6.30;99.90
6114;DHT22;3087;48.392;10.836;2023-04-03T08:04:26;6.40;99.90
6114;DHT22;3087;48.392;10.836;2023-04-03T08:06:52;6.40;99.90
6114;DHT22;3087;48.392;10.836;2023-04-03T08:09:18;6.40;99.90
6114;DHT22;3087;48.392;10.836;2023-04-03T08:11:44;6.30;99.90
6114;DHT22;3087;48.392;10.836;2023-04-03T08:14:11;6.40;99.90
6114;DHT22;3087;48.392;10.836;2023-04-03T08:16:42;6.30;99.90
6114;DHT22;3087;48.392;10.836;2023-04-03T08:19:08;6.40;99.90
6114;DHT22;3087;48.392;10.836;2023-04-03T08:21:34;6.40;99.90
6114;DHT22;3087;48.392;10.836;2023-04-03T08:23:59;6.80;99.90
6114;DHT22;3087;48.392;10.836;2023-04-03T08:26:25;6.50;99.90
6114;DHT22;3087;48.392;10.836;2023-04-03T08:28:52;6.50;99.90
6114;DHT22;3087;48.392;10.836;2023-04-03T08:31:19;6.60;99.90
6114;DHT22;3087;48.392;10.836;2023-04-03T08:33:45;6.60;99.90
6114;DHT22;3087;48.392;10.836;2023-04-03T08:36:23;6.50;99.90
6114;DHT22;3087;48.392;10.836;2023-04-03T08:38:50;6.60;99.90
6114;DHT22;3087;48.392;10.836;2023-04-03T08:41:35;6.70;99.90
6114;DHT22;3087;48.392;10.836;2023-04-03T08:44:07;6.80;99.90
6114;DHT22;3087;48.392;10.836;2023-04-03T08:49:42;7.10;99.90
6114;DHT22;3087;48.392;10.836;2023-04-03T08:52:36;6.90;99.90
6114;DHT22;3087;48.392;10.836;2023-04-03T08:57:47;6.70;99.90
6114;DHT22;3087;48.392;10.836;2023-04-03T09:00:20;6.70;99.90
6114;DHT22;3087;48.392;10.836;2023-04-03T09:02:50;6.60;99.90
6114;DHT22;3087;48.392;10.836;2023-04-03T09:08:03;6.60;99.90
6114;DHT22;3087;48.392;10.836;2023-04-03T09:10:33;6.60;99.90
6114;DHT22;3087;48.392;10.836;2023-04-03T09:13:13;6.70;99.90
6114;DHT22;3087;48.392;10.836;2023-04-03T09:15:44;5.30;99.90
6114;DHT22;3087;48.392;10.836;2023-04-03T09:26:02;6.60;99.90
6114;DHT22;3087;48.392;10.836;2023-04-03T09:28:33;6.60;99.90
6114;DHT22;3087;48.392;10.836;2023-04-03T09:31:00;6.60;99.90
6114;DHT22;3087;48.392;10.836;2023-04-03T09:33:27;6.60;99.90
6114;DHT22;3087;48.392;10.836;2023-04-03T09:35:54;6.60;99.90
6114;DHT22;3087;48.392;10.836;2023-04-03T09:38:21;6.70;99.90
6114;DHT22;3087;48.392;10.836;2023-04-03T09:41:14;6.50;99.90
6114;DHT22;3087;48.392;10.836;2023-04-03T09:43:52;6.40;99.90
6114;DHT22;3087;48.392;10.836;2023-04-03T09:49:02;6.30;99.90
6114;DHT22;3087;48.392;10.836;2023-04-03T09:51:28;6.30;99.90
6114;DHT22;3087;48.392;10.836;2023-04-03T09:53:55;6.30;99.90
6114;DHT22;3087;48.392;10.836;2023-04-03T09:56:28;6.20;99.90
6114;DHT22;3087;48.392;10.836;2023-04-03T10:01:34;6.30;99.90
6114;DHT22;3087;48.392;10.836;2023-04-03T10:06:37;6.50;99.90
6114;DHT22;3087;48.392;10.836;2023-04-03T10:12:09;6.50;99.90
6114;DHT22;3087;48.392;10.836;2023-04-03T10:36:40;6.70;99.90
6114;DHT22;3087;48.392;10.836;2023-04-03T10:39:30;6.60;99.90
6114;DHT22;3087;48.392;10.836;2023-04-03T10:53:50;6.60;99.90
6114;DHT22;3087;48.392;10.836;2023-04-03T10:56:40;6.70;99.90
6114;DHT22;3087;48.392;10.836;2023-04-03T10:59:30;6.60;99.90
6114;DHT22;3087;48.392;10.836;2023-04-03T11:02:01;6.70;99.90
6114;DHT22;3087;48.392;10.836;2023-04-03T11:04:34;6.80;99.90
6114;DHT22;3087;48.392;10.836;2023-04-03T11:07:08;6.80;99.90
6114;DHT22;3087;48.392;10.836;2023-04-03T11:09:40;6.90;99.90
6114;DHT22;3087;48.392;10.836;2023-04-03T11:12:38;6.90;99.90
6114;DHT22;3087;48.392;10.836;2023-04-03T11:15:15;7.00;99.90
6114;DHT22;3087;48.392;10.836;2023-04-03T11:17:46;7.10;99.90
6114;DHT22;3087;48.392;10.836;2023-04-03T11:20:21;7.20;99.90
6114;DHT22;3087;48.392;10.836;2023-04-03T11:23:16;7.20;99.90
6114;DHT22;3087;48.392;10.836;2023-04-03T11:25:46;7.10;99.90
6114;DHT22;3087;48.392;10.836;2023-04-03T11:28:14;7.20;99.90
6114;DHT22;3087;48.392;10.836;2023-04-03T11:39:35;7.30;99.90
6114;DHT22;3087;48.392;10.836;2023-04-03T11:42:39;4.50;99.90
6114;DHT22;3087;48.392;10.836;2023-04-03T11:47:53;6.90;99.90
6114;DHT22;3087;48.392;10.836;2023-04-03T12:16:20;7.90;99.90
6114;DHT22;3087;48.392;10.836;2023-04-03T12:35:14;8.70;99.90
6114;DHT22;3087;48.392;10.836;2023-04-03T12:45:47;9.10;99.90
6114;DHT22;3087;48.392;10.836;2023-04-03T12:48:18;11.90;99.90
6114;DHT22;3087;48.392;10.836;2023-04-03T12:50:48;9.60;99.90
6114;DHT22;3087;48.392;10.836;2023-04-03T12:53:28;10.00;99.90
6114;DHT22;3087;48.392;10.836;2023-04-03T12:56:19;9.70;99.90
6114;DHT22;3087;48.392;10.836;2023-04-03T12:58:46;9.90;99.90
6114;DHT22;3087;48.392;10.836;2023-04-03T13:01:15;9.90;99.90
6114;DHT22;3087;48.392;10.836;2023-04-03T13:03:46;9.80;99.90
6114;DHT22;3087;48.392;10.836;2023-04-03T13:06:22;9.70;99.90
6114;DHT22;3087;48.392;10.836;2023-04-03T13:08:55;10.10;99.90
6114;DHT22;3087;48.392;10.836;2023-04-03T13:11:24;10.30;99.90
6114;DHT22;3087;48.392;10.836;2023-04-03T13:14:02;9.90;99.90
6114;DHT22;3087;48.392;10.836;2023-04-03T13:16:29;9.40;99.90
6114;DHT22;3087;48.392;10.836;2023-04-03T13:18:55;9.00;99.90
6114;DHT22;3087;48.392;10.836;2023-04-03T13:21:29;8.80;99.90
6114;DHT22;3087;48.392;10.836;2023-04-03T13:23:59;9.20;99.90
6114;DHT22;3087;48.392;10.836;2023-04-03T13:26:28;8.50;99.90
6114;DHT22;3087;48.392;10.836;2023-04-03T13:28:59;8.30;99.90
6114;DHT22;3087;48.392;10.836;2023-04-03T13:31:45;8.20;99.90
6114;DHT22;3087;48.392;10.836;2023-04-03T13:34:20;8.10;99.90
6114;DHT22;3087;48.392;10.836;2023-04-03T13:36:58;7.10;99.90
6114;DHT22;3087;48.392;10.836;2023-04-03T13:39:28;8.20;99.90
6114;DHT22;3087;48.392;10.836;2023-04-03T13:41:57;8.00;99.90
6114;DHT22;3087;48.392;10.836;2023-04-03T13:46:57;8.10;99.90
6114;DHT22;3087;48.392;10.836;2023-04-03T13:51:52;8.10;99.90
6114;DHT22;3087;48.392;10.836;2023-04-03T13:54:24;8.40;99.90
6114;DHT22;3087;48.392;10.836;2023-04-03T13:56:54;8.60;99.90
6114;DHT22;3087;48.392;10.836;2023-04-03T13:59:25;8.70;99.90
6114;DHT22;3087;48.392;10.836;2023-04-03T14:02:12;8.70;99.90
6114;DHT22;3087;48.392;10.836;2023-04-03T14:07:13;9.20;99.90
6114;DHT22;3087;48.392;10.836;2023-04-03T14:09:39;8.90;99.90
6114;DHT22;3087;48.392;10.836;2023-04-03T14:12:12;9.20;99.90
6114;DHT22;3087;48.392;10.836;2023-04-03T14:14:39;9.80;99.90
6114;DHT22;3087;48.392;10.836;2023-04-03T14:17:17;10.30;99.90
6114;DHT22;3087;48.392;10.836;2023-04-03T14:19:43;10.90;99.90
6114;DHT22;3087;48.392;10.836;2023-04-03T14:22:22;11.60;97.50
6114;DHT22;3087;48.392;10.836;2023-04-03T14:24:49;11.50;97.10
6114;DHT22;3087;48.392;10.836;2023-04-03T14:27:40;11.20;96.40
6114;DHT22;3087;48.392;10.836;2023-04-03T14:30:08;10.90;95.10
6114;DHT22;3087;48.392;10.836;2023-04-03T14:32:34;10.50;94.90
6114;DHT22;3087;48.392;10.836;2023-04-03T14:35:00;10.40;95.50
6114;DHT22;3087;48.392;10.836;2023-04-03T14:37:28;10.60;94.70
6114;DHT22;3087;48.392;10.836;2023-04-03T14:39:55;10.30;93.40
6114;DHT22;3087;48.392;10.836;2023-04-03T14:42:33;10.30;92.80
6114;DHT22;3087;48.392;10.836;2023-04-03T14:45:04;10.10;91.40
6114;DHT22;3087;48.392;10.836;2023-04-03T14:47:31;9.90;92.10
6114;DHT22;3087;48.392;10.836;2023-04-03T14:49:59;9.80;92.50
6114;DHT22;3087;48.392;10.836;2023-04-03T14:52:35;10.10;92.40
6114;DHT22;3087;48.392;10.836;2023-04-03T14:55:02;9.50;92.50
6114;DHT22;3087;48.392;10.836;2023-04-03T14:57:29;9.30;92.80
6114;DHT22;3087;48.392;10.836;2023-04-03T14:59:55;9.40;93.50
6114;DHT22;3087;48.392;10.836;2023-04-03T15:02:33;9.10;92.00
6114;DHT22;3087;48.392;10.836;2023-04-03T15:05:01;9.00;92.70
6114;DHT22;3087;48.392;10.836;2023-04-03T15:07:30;9.00;93.00
6114;DHT22;3087;48.392;10.836;2023-04-03T15:09:56;9.50;93.60
6114;DHT22;3087;48.392;10.836;2023-04-03T15:12:22;8.90;92.70
6114;DHT22;3087;48.392;10.836;2023-04-03T15:14:48;9.50;92.60
6114;DHT22;3087;48.392;10.836;2023-04-03T15:17:20;9.10;92.30
6114;DHT22;3087;48.392;10.836;2023-04-03T15:19:47;9.40;93.00
6114;DHT22;3087;48.392;10.836;2023-04-03T15:22:14;9.00;92.40
6114;DHT22;3087;48.392;10.836;2023-04-03T15:24:41;9.00;92.30
6114;DHT22;3087;48.392;10.836;2023-04-03T15:27:08;9.00;92.00
6114;DHT22;3087;48.392;10.836;2023-04-03T15:29:33;8.80;91.80
6114;DHT22;3087;48.392;10.836;2023-04-03T15:31:59;8.80;92.30
6114;DHT22;3087;48.392;10.836;2023-04-03T15:34:24;8.80;92.70
6114;DHT22;3087;48.392;10.836;2023-04-03T15:36:50;8.80;91.60
6114;DHT22;3087;48.392;10.836;2023-04-03T15:39:19;8.60;88.60
6114;DHT22;3087;48.392;10.836;2023-04-03T15:41:45;8.60;90.00
6114;DHT22;3087;48.392;10.836;2023-04-03T15:44:11;8.70;90.10
6114;DHT22;3087;48.392;10.836;2023-04-03T15:46:38;8.50;90.70
6114;DHT22;3087;48.392;10.836;2023-04-03T15:49:05;8.40;88.60
6114;DHT22;3087;48.392;10.836;2023-04-03T15:51:31;8.40;88.70
6114;DHT22;3087;48.392;10.836;2023-04-03T15:53:56;8.60;90.20
6114;DHT22;3087;48.392;10.836;2023-04-03T15:56:22;8.90;89.80
6114;DHT22;3087;48.392;10.836;2023-04-03T15:58:47;9.20;90.00
6114;DHT22;3087;48.392;10.836;2023-04-03T16:01:13;9.20;90.00
6114;DHT22;3087;48.392;10.836;2023-04-03T16:03:40;9.40;90.00
6114;DHT22;3087;48.392;10.836;2023-04-03T16:06:11;9.40;89.40
6114;DHT22;3087;48.392;10.836;2023-04-03T16:08:37;9.00;87.90
6114;DHT22;3087;48.392;10.836;2023-04-03T16:11:02;8.80;88.40
6114;DHT22;3087;48.392;10.836;2023-04-03T16:13:28;8.70;89.00
6114;DHT22;3087;48.392;10.836;2023-04-03T16:15:54;8.60;88.10
6114;DHT22;3087;48.392;10.836;2023-04-03T16:18:20;8.40;87.70
6114;DHT22;3087;48.392;10.836;2023-04-03T16:20:46;8.30;89.40
6114;DHT22;3087;48.392;10.836;2023-04-03T16:23:12;8.40;89.00
6114;DHT22;3087;48.392;10.836;2023-04-03T16:25:38;8.40;91.00
6114;DHT22;3087;48.392;10.836;2023-04-03T16:28:03;8.40;90.20
6114;DHT22;3087;48.392;10.836;2023-04-03T16:30:29;8.30;87.80
6114;DHT22;3087;48.392;10.836;2023-04-03T16:32:56;8.40;90.10
6114;DHT22;3087;48.392;10.836;2023-04-03T16:35:22;8.50;87.50
6114;DHT22;3087;48.392;10.836;2023-04-03T16:37:48;8.70;87.90
6114;DHT22;3087;48.392;10.836;2023-04-03T16:40:13;8.90;89.10
6114;DHT22;3087;48.392;10.836;2023-04-03T16:42:39;9.00;88.00
6114;DHT22;3087;48.392;10.836;2023-04-03T16:45:06;9.00;89.30
6114;DHT22;3087;48.392;10.836;2023-04-03T16:47:32;9.00;88.00
6114;DHT22;3087;48.392;10.836;2023-04-03T16:49:57;8.80;86.50
6114;DHT22;3087;48.392;10.836;2023-04-03T16:52:23;8.60;86.00
6114;DHT22;3087;48.392;10.836;2023-04-03T16:54:49;8.40;87.70
6114;DHT22;3087;48.392;10.836;2023-04-03T16:57:14;8.30;86.70
6114;DHT22;3087;48.392;10.836;2023-04-03T16:59:40;8.20;87.20
6114;DHT22;3087;48.392;10.836;2023-04-03T17:02:06;8.20;88.20
6114;DHT22;3087;48.392;10.836;2023-04-03T17:04:32;8.20;90.10
6114;DHT22;3087;48.392;10.836;2023-04-03T17:06:57;8.10;88.60
6114;DHT22;3087;48.392;10.836;2023-04-03T17:09:25;8.30;88.50
6114;DHT22;3087;48.392;10.836;2023-04-03T17:11:50;7.10;87.40
6114;DHT22;3087;48.392;10.836;2023-04-03T17:14:16;8.00;89.10
6114;DHT22;3087;48.392;10.836;2023-04-03T17:16:42;7.90;89.50
6114;DHT22;3087;48.392;10.836;2023-04-03T17:19:07;8.30;89.00
6114;DHT22;3087;48.392;10.836;2023-04-03T17:21:33;7.90;90.00
6114;DHT22;3087;48.392;10.836;2023-04-03T17:24:02;7.90;90.20
6114;DHT22;3087;48.392;10.836;2023-04-03T17:26:28;7.70;90.20
6114;DHT22;3087;48.392;10.836;2023-04-03T17:28:54;7.60;90.30
6114;DHT22;3087;48.392;10.836;2023-04-03T17:31:19;7.50;90.30
6114;DHT22;3087;48.392;10.836;2023-04-03T17:33:45;7.50;90.90
6114;DHT22;3087;48.392;10.836;2023-04-03T17:36:11;7.60;91.10
6114;DHT22;3087;48.392;10.836;2023-04-03T17:38:37;8.10;91.80
6114;DHT22;3087;48.392;10.836;2023-04-03T17:41:07;7.80;91.00
6114;DHT22;3087;48.392;10.836;2023-04-03T17:43:33;7.60;90.10
6114;DHT22;3087;48.392;10.836;2023-04-03T17:46:01;8.20;90.60
6114;DHT22;3087;48.392;10.836;2023-04-03T17:48:29;8.50;91.00
6114;DHT22;3087;48.392;10.836;2023-04-03T17:50:55;9.10;91.80
6114;DHT22;3087;48.392;10.836;2023-04-03T17:53:20;7.40;90.20
6114;DHT22;3087;48.392;10.836;2023-04-03T17:55:46;7.30;90.20
6114;DHT22;3087;48.392;10.836;2023-04-03T17:58:12;7.20;90.70
6114;DHT22;3087;48.392;10.836;2023-04-03T18:00:37;7.20;91.40
6114;DHT22;3087;48.392;10.836;2023-04-03T18:03:03;7.00;90.60
6114;DHT22;3087;48.392;10.836;2023-04-03T18:05:29;6.80;91.30
6114;DHT22;3087;48.392;10.836;2023-04-03T18:07:57;6.70;91.90
6114;DHT22;3087;48.392;10.836;2023-04-03T18:10:23;6.50;91.70
6114;DHT22;3087;48.392;10.836;2023-04-03T18:12:51;6.60;92.20
6114;DHT22;3087;48.392;10.836;2023-04-03T18:15:17;6.60;92.40
6114;DHT22;3087;48.392;10.836;2023-04-03T18:17:43;6.90;93.00
6114;DHT22;3087;48.392;10.836;2023-04-03T18:20:09;6.50;91.80
6114;DHT22;3087;48.392;10.836;2023-04-03T18:22:36;6.40;92.80